Terminal Aerodrome Forecast
Issued by NWS Greer, SC

Home | Current Version | Previous Version | Text Only | Print | Product List | Glossary On
Versions: 1 2 3 4 5 6 7 8 9 10 11 12 13 14 15 16 17 18 19 20 21 22 23 24 25 26 27 28 29 30 31 32 33 34 35 36 37 38 39 40 41 42
000
FTUS42 KGSP 301156 CCA
TAFAVL
TAF COR
KAVL 301156Z 3012/3112 30003KT 5SM BR SCT003
      TEMPO 3012/3013 2SM BR BKN001
     FM301300 33006KT P6SM VCSH BKN060
     FM301800 33004KT P6SM VCSH BKN060 PROB30 3021/3024 4SM TSRA
      BKN040CB
     FM310100 35008KT P6SM BKN120=

USA.gov is the U.S. government's official web portal to all federal, state and local government web resources and services.